Time;durP1;ratioP1;P1;durP2;ratioP2;P2;SDS_P1;SDS_P2;PMS_P1;PMS_P2;Temp;Humidity;BMP_temperature;BMP_pressure;BME280_temperature;BME280_humidity;BME280_pressure;Samples;Min_cycle;Max_cycle;Signal;HPM_P1;HPM_P2
2022/08/13 00:00:58;;;;;;;4.13;2.70;;;;;;;;;;4948636;28;20056;-65
2022/08/13 00:03:24;;;;;;;5.10;3.03;;;;;;;;;;4948915;28;20448;-66
2022/08/13 00:05:50;;;;;;;3.38;2.40;;;;;;;;;;4948501;28;20578;-65
2022/08/13 00:08:17;;;;;;;4.00;3.10;;;;;;;;;;4950510;28;20374;-65
2022/08/13 00:10:42;;;;;;;3.08;2.40;;;;;;;;;;4948469;28;20449;-65
2022/08/13 00:13:14;;;;;;;4.28;2.55;;;;;;;;;;4947341;28;20340;-66
2022/08/13 00:15:43;;;;;;;4.95;2.88;;;;;;;;;;4949361;28;20107;-65
2022/08/13 00:18:14;;;;;;;;;;;;;;;;;;4948860;28;20380;-65
2022/08/13 00:20:49;;;;;;;3.20;2.42;;;;;;;;;;4948389;28;20372;-65
2022/08/13 00:23:16;;;;;;;4.05;2.78;;;;;;;;;;4949015;28;20421;-65
2022/08/13 00:25:43;;;;;;;3.97;2.63;;;;;;;;;;4948327;28;20373;-65
2022/08/13 00:28:09;;;;;;;3.35;2.30;;;;;;;;;;4947665;28;20556;-65
2022/08/13 00:30:36;;;;;;;3.28;2.30;;;;;;;;;;4948168;28;20416;-65
2022/08/13 00:33:12;;;;;;;4.45;2.50;;;;;;;;;;4948415;28;20462;-66
2022/08/13 00:35:44;;;;;;;3.05;2.53;;;;;;;;;;4948312;28;20384;-65
2022/08/13 00:38:15;;;;;;;4.35;2.80;;;;;;;;;;4949258;28;20408;-65
2022/08/13 00:40:49;;;;;;;3.40;2.10;;;;;;;;;;4948552;28;20136;-65
2022/08/13 00:43:14;;;;;;;5.55;2.38;;;;;;;;;;4946698;28;20314;-65
2022/08/13 00:45:41;;;;;;;4.03;2.50;;;;;;;;;;4948075;28;20428;-65
2022/08/13 00:50:51;;;;;;;3.55;2.35;;;;;;;;;;4948798;28;20065;-65
2022/08/13 00:53:19;;;;;;;3.67;2.50;;;;;;;;;;4948495;28;20402;-65
2022/08/13 00:55:48;;;;;;;3.78;2.22;;;;;;;;;;4948082;28;20471;-65
2022/08/13 00:58:16;;;;;;;3.67;2.45;;;;;;;;;;4947919;28;20080;-66
2022/08/13 01:00:46;;;;;;;2.87;2.10;;;;;;;;;;4947537;28;20503;-65
2022/08/13 01:03:12;;;;;;;3.25;2.65;;;;;;;;;;4958716;28;20777;-65
2022/08/13 01:05:39;;;;;;;3.85;2.88;;;;;;;;;;4951963;28;20469;-66
2022/08/13 01:08:05;;;;;;;3.33;2.33;;;;;;;;;;4952166;28;20089;-66
2022/08/13 01:10:30;;;;;;;3.70;2.80;;;;;;;;;;4953937;28;20057;-66
2022/08/13 01:12:56;;;;;;;3.72;2.65;;;;;;;;;;4951532;28;20350;-65
2022/08/13 01:15:23;;;;;;;3.95;2.90;;;;;;;;;;4950112;28;20099;-65
2022/08/13 01:17:53;;;;;;;5.60;2.20;;;;;;;;;;4951686;28;20341;-65
2022/08/13 01:20:21;;;;;;;4.13;2.42;;;;;;;;;;4951621;28;20349;-65
2022/08/13 01:22:52;;;;;;;4.07;2.58;;;;;;;;;;4952249;28;20034;-66
2022/08/13 01:25:21;;;;;;;3.65;2.80;;;;;;;;;;4951407;28;20449;-65
2022/08/13 01:27:48;;;;;;;4.43;2.75;;;;;;;;;;4951590;28;20030;-66
2022/08/13 01:30:19;;;;;;;4.75;2.95;;;;;;;;;;4951085;28;20478;-65
2022/08/13 01:32:45;;;;;;;3.72;2.90;;;;;;;;;;4951346;28;20341;-65
2022/08/13 01:35:10;;;;;;;3.65;2.83;;;;;;;;;;4949858;28;20347;-65
2022/08/13 01:37:39;;;;;;;3.92;2.53;;;;;;;;;;4951856;28;20375;-65
2022/08/13 01:40:06;;;;;;;3.33;2.50;;;;;;;;;;4950682;28;20345;-65
2022/08/13 01:42:43;;;;;;;3.40;2.60;;;;;;;;;;4951036;28;20113;-65
2022/08/13 01:45:10;;;;;;;4.65;2.88;;;;;;;;;;4951833;28;20413;-65
2022/08/13 01:50:30;;;;;;;3.90;2.67;;;;;;;;;;4972073;28;20495;-65
2022/08/13 01:53:11;;;;;;;4.13;2.78;;;;;;;;;;4970311;28;20167;-65
2022/08/13 01:55:39;;;;;;;3.10;2.35;;;;;;;;;;4970646;28;20430;-65
2022/08/13 01:58:25;;;;;;;4.75;2.85;;;;;;;;;;4970320;28;20355;-65
2022/08/13 02:00:55;;;;;;;5.75;2.83;;;;;;;;;;4970189;28;20456;-66
2022/08/13 02:03:20;;;;;;;3.10;2.40;;;;;;;;;;4972468;28;20056;-65
2022/08/13 02:05:50;;;;;;;4.38;3.05;;;;;;;;;;4970865;28;20045;-65
2022/08/13 02:08:20;;;;;;;3.72;2.83;;;;;;;;;;4970669;28;20318;-66
2022/08/13 02:10:46;;;;;;;3.40;2.63;;;;;;;;;;4971576;28;20439;-66
2022/08/13 02:13:18;;;;;;;3.90;2.67;;;;;;;;;;4970211;28;20352;-65
2022/08/13 02:15:46;;;;;;;4.00;2.60;;;;;;;;;;4969747;28;20037;-68
2022/08/13 02:18:19;;;;;;;2.90;2.43;;;;;;;;;;4970184;28;20513;-65
2022/08/13 02:20:57;;;;;;;3.47;2.60;;;;;;;;;;4970946;28;20449;-67
2022/08/13 02:23:32;;;;;;;4.13;2.90;;;;;;;;;;4970075;28;20347;-65
2022/08/13 02:25:59;;;;;;;4.65;2.88;;;;;;;;;;4969949;28;20387;-66
2022/08/13 02:28:25;;;;;;;3.38;2.70;;;;;;;;;;4969886;28;20393;-65
2022/08/13 02:30:52;;;;;;;3.72;2.80;;;;;;;;;;4969636;28;20440;-66
2022/08/13 02:33:17;;;;;;;3.72;2.83;;;;;;;;;;4969704;28;20332;-66
2022/08/13 02:35:43;;;;;;;3.45;2.60;;;;;;;;;;4970105;28;20344;-66
2022/08/13 02:38:12;;;;;;;3.95;2.60;;;;;;;;;;4969835;28;20498;-66
2022/08/13 02:43:25;;;;;;;4.28;3.20;;;;;;;;;;4970569;28;20170;-65
2022/08/13 02:45:55;;;;;;;3.83;2.83;;;;;;;;;;4969495;28;20029;-66
2022/08/13 02:48:24;;;;;;;4.15;2.83;;;;;;;;;;4970901;28;20344;-66
2022/08/13 02:50:51;;;;;;;4.22;2.45;;;;;;;;;;4969461;28;20450;-66
2022/08/13 02:53:17;;;;;;;3.28;2.33;;;;;;;;;;4969542;28;20325;-66
2022/08/13 02:55:43;;;;;;;3.92;2.95;;;;;;;;;;4969547;28;20344;-65
2022/08/13 02:58:09;;;;;;;4.18;2.90;;;;;;;;;;4970388;28;20325;-66
2022/08/13 03:00:35;;;;;;;3.33;3.03;;;;;;;;;;4969313;28;20428;-65
2022/08/13 03:03:01;;;;;;;4.30;3.10;;;;;;;;;;4969637;28;20404;-66
2022/08/13 03:05:30;;;;;;;4.28;3.10;;;;;;;;;;4969145;28;20026;-65
2022/08/13 03:07:56;;;;;;;3.22;2.60;;;;;;;;;;4969606;28;20451;-65
2022/08/13 03:10:25;;;;;;;4.13;2.70;;;;;;;;;;4969130;28;20368;-65
2022/08/13 03:12:58;;;;;;;4.75;3.30;;;;;;;;;;4969223;28;20344;-65
2022/08/13 03:15:25;;;;;;;4.72;3.22;;;;;;;;;;4967885;28;20424;-66
2022/08/13 03:17:50;;;;;;;3.40;2.72;;;;;;;;;;4968915;28;20506;-65
2022/08/13 03:20:16;;;;;;;5.47;3.00;;;;;;;;;;4969994;28;20391;-66
2022/08/13 03:22:56;;;;;;;4.20;2.97;;;;;;;;;;4968886;28;20436;-65
2022/08/13 03:25:25;;;;;;;3.72;2.63;;;;;;;;;;4969429;28;20340;-65
2022/08/13 03:27:52;;;;;;;3.83;2.67;;;;;;;;;;4968090;28;20044;-65
2022/08/13 03:30:19;;;;;;;3.17;2.40;;;;;;;;;;4968399;28;20579;-65
2022/08/13 03:32:46;;;;;;;4.15;2.67;;;;;;;;;;4968778;28;20444;-65
2022/08/13 03:35:16;;;;;;;3.40;2.83;;;;;;;;;;4969107;28;20459;-66
2022/08/13 03:37:45;;;;;;;3.88;2.58;;;;;;;;;;4968465;28;20527;-65
2022/08/13 03:40:11;;;;;;;5.35;3.13;;;;;;;;;;4968576;28;20417;-65
2022/08/13 03:42:40;;;;;;;5.05;2.88;;;;;;;;;;4968962;28;20064;-65
2022/08/13 03:45:06;;;;;;;;;;;;;;;;;;4969038;28;20402;-65
2022/08/13 03:47:31;;;;;;;3.15;2.40;;;;;;;;;;4968446;28;20324;-66
2022/08/13 03:49:59;;;;;;;4.28;3.08;;;;;;;;;;4968287;28;20464;-65
2022/08/13 03:52:24;;;;;;;2.65;2.30;;;;;;;;;;4968852;28;20340;-65
2022/08/13 03:54:50;;;;;;;5.13;2.97;;;;;;;;;;4969321;28;20471;-65
2022/08/13 03:57:17;;;;;;;3.80;2.75;;;;;;;;;;4968251;28;20325;-66
2022/08/13 03:59:43;;;;;;;3.63;2.70;;;;;;;;;;4968227;28;20364;-66
2022/08/13 04:02:08;;;;;;;4.60;2.88;;;;;;;;;;4968566;28;20021;-66
2022/08/13 04:04:34;;;;;;;4.10;3.10;;;;;;;;;;4968214;28;20457;-65
2022/08/13 04:07:00;;;;;;;3.83;3.08;;;;;;;;;;4968772;28;20064;-65
2022/08/13 04:09:25;;;;;;;4.93;2.80;;;;;;;;;;4968050;28;20433;-66
2022/08/13 04:11:51;;;;;;;4.13;2.72;;;;;;;;;;4968263;28;20530;-65
2022/08/13 04:14:16;;;;;;;4.65;2.58;;;;;;;;;;4970287;28;20419;-65
2022/08/13 04:16:41;;;;;;;3.92;2.95;;;;;;;;;;4968056;28;20455;-65
2022/08/13 04:19:07;;;;;;;4.28;3.13;;;;;;;;;;4968118;28;20118;-65
2022/08/13 04:21:37;;;;;;;3.30;2.58;;;;;;;;;;4968049;28;20387;-65
2022/08/13 04:24:03;;;;;;;5.40;3.40;;;;;;;;;;4967969;28;20160;-65
2022/08/13 04:26:30;;;;;;;5.05;3.65;;;;;;;;;;4967777;28;20344;-66
2022/08/13 04:28:57;;;;;;;4.63;3.47;;;;;;;;;;4967879;28;20049;-66
2022/08/13 04:31:24;;;;;;;4.43;3.35;;;;;;;;;;4968650;28;20496;-65
2022/08/13 04:33:50;;;;;;;4.72;3.33;;;;;;;;;;4967987;28;20460;-65
2022/08/13 04:36:16;;;;;;;3.80;2.80;;;;;;;;;;4967767;28;20468;-65
2022/08/13 04:38:42;;;;;;;4.63;3.00;;;;;;;;;;4968869;28;20057;-66
2022/08/13 04:41:07;;;;;;;5.32;3.08;;;;;;;;;;4970386;28;20212;-66
2022/08/13 04:43:32;;;;;;;5.03;3.22;;;;;;;;;;4971847;28;20383;-66
2022/08/13 04:46:01;;;;;;;4.78;3.40;;;;;;;;;;4970445;28;20472;-66
2022/08/13 04:48:28;;;;;;;5.60;3.78;;;;;;;;;;4971639;28;20340;-66
2022/08/13 04:50:54;;;;;;;5.38;3.40;;;;;;;;;;4971862;28;20387;-65
2022/08/13 04:53:38;;;;;;;5.78;3.65;;;;;;;;;;4971864;28;20375;-66
2022/08/13 04:56:04;;;;;;;4.65;3.17;;;;;;;;;;4971564;28;20052;-65
2022/08/13 04:58:35;;;;;;;4.75;3.33;;;;;;;;;;4972926;28;20432;-66
2022/08/13 05:01:01;;;;;;;4.95;3.42;;;;;;;;;;4976695;28;20490;-66
2022/08/13 05:03:29;;;;;;;5.28;3.55;;;;;;;;;;4627751;28;10001158;-66
2022/08/13 05:05:54;;;;;;;4.78;3.28;;;;;;;;;;4970888;28;20440;-65
2022/08/13 05:08:20;;;;;;;7.00;3.33;;;;;;;;;;4971344;28;20029;-65
2022/08/13 05:10:48;;;;;;;5.20;3.28;;;;;;;;;;4971790;28;20034;-65
2022/08/13 05:13:20;;;;;;;5.47;3.55;;;;;;;;;;4971232;28;20424;-65
2022/08/13 05:15:46;;;;;;;5.00;3.63;;;;;;;;;;4971277;28;20061;-65
2022/08/13 05:18:11;;;;;;;5.50;3.85;;;;;;;;;;4971062;28;20527;-65
2022/08/13 05:20:39;;;;;;;5.80;4.00;;;;;;;;;;4971053;28;20029;-65
2022/08/13 05:23:12;;;;;;;5.73;3.63;;;;;;;;;;4971230;28;20389;-65
2022/08/13 05:25:38;;;;;;;5.20;3.40;;;;;;;;;;4971607;28;20030;-65
2022/08/13 05:28:03;;;;;;;8.07;3.83;;;;;;;;;;4971571;28;20053;-64
2022/08/13 05:30:29;;;;;;;4.72;3.80;;;;;;;;;;4970721;28;20432;-65
2022/08/13 05:32:57;;;;;;;6.38;3.85;;;;;;;;;;4971036;28;20455;-64
2022/08/13 05:35:23;;;;;;;5.72;3.80;;;;;;;;;;4970890;28;20434;-65
2022/08/13 05:37:49;;;;;;;5.35;4.05;;;;;;;;;;4970777;28;20380;-64
2022/08/13 05:40:14;;;;;;;7.00;4.30;;;;;;;;;;4972006;28;20404;-65
2022/08/13 05:42:40;;;;;;;4.65;3.65;;;;;;;;;;4970773;28;20076;-65
2022/08/13 05:45:08;;;;;;;4.53;3.55;;;;;;;;;;4970844;28;20455;-65
2022/08/13 05:47:35;;;;;;;6.07;3.80;;;;;;;;;;4972137;28;20507;-64
2022/08/13 05:50:00;;;;;;;5.35;3.80;;;;;;;;;;4970623;28;20053;-65
2022/08/13 05:52:27;;;;;;;5.30;3.67;;;;;;;;;;4969944;28;20474;-65
2022/08/13 05:54:55;;;;;;;5.28;3.78;;;;;;;;;;4970574;28;20414;-65
2022/08/13 05:57:21;;;;;;;6.50;3.60;;;;;;;;;;4970310;28;20339;-64
2022/08/13 06:05:15;;;;;;;5.60;3.60;;;;;;;;;;4970321;28;20371;-65
2022/08/13 06:07:42;;;;;;;5.85;3.58;;;;;;;;;;4971652;28;20412;-65
2022/08/13 06:10:08;;;;;;;5.93;4.10;;;;;;;;;;4970248;28;20523;-65
2022/08/13 06:12:33;;;;;;;5.90;3.97;;;;;;;;;;4972119;28;20412;-65
2022/08/13 06:14:59;;;;;;;5.07;3.45;;;;;;;;;;4970675;28;20436;-65
2022/08/13 06:17:24;;;;;;;5.25;3.72;;;;;;;;;;4970573;28;20057;-65
2022/08/13 06:19:51;;;;;;;5.30;3.90;;;;;;;;;;4969400;28;20348;-65
2022/08/13 06:22:19;;;;;;;4.20;3.42;;;;;;;;;;4970920;28;20048;-65
2022/08/13 06:24:45;;;;;;;7.57;3.92;;;;;;;;;;4970071;28;20437;-65
2022/08/13 06:27:11;;;;;;;4.85;3.83;;;;;;;;;;4970856;28;20379;-65
2022/08/13 06:29:40;;;;;;;6.68;4.38;;;;;;;;;;4970573;28;20045;-65
2022/08/13 06:32:06;;;;;;;5.00;3.55;;;;;;;;;;4969973;28;20341;-65
2022/08/13 06:34:34;;;;;;;5.57;3.10;;;;;;;;;;4969809;28;20459;-65
2022/08/13 06:37:03;;;;;;;5.78;4.05;;;;;;;;;;4971096;28;20558;-64
2022/08/13 06:39:31;;;;;;;5.47;3.35;;;;;;;;;;4968787;28;20435;-65
2022/08/13 06:42:02;;;;;;;5.10;3.42;;;;;;;;;;4969789;28;20348;-64
2022/08/13 06:44:29;;;;;;;4.60;2.97;;;;;;;;;;4968736;28;20328;-65
2022/08/13 06:46:55;;;;;;;5.38;3.78;;;;;;;;;;4969556;28;20423;-64
2022/08/13 06:49:21;;;;;;;4.47;3.00;;;;;;;;;;4970146;28;20030;-64
2022/08/13 06:51:46;;;;;;;6.65;3.15;;;;;;;;;;4969405;28;20446;-65
2022/08/13 06:54:11;;;;;;;4.47;3.22;;;;;;;;;;4967857;28;20396;-69
2022/08/13 06:56:37;;;;;;;4.50;3.25;;;;;;;;;;4969850;28;20416;-65
2022/08/13 06:59:03;;;;;;;4.78;3.20;;;;;;;;;;4969446;28;20080;-65
2022/08/13 07:01:29;;;;;;;4.32;3.20;;;;;;;;;;4970371;28;20125;-64
2022/08/13 07:03:55;;;;;;;3.63;2.58;;;;;;;;;;4970321;28;20439;-64
2022/08/13 07:06:27;;;;;;;3.78;3.03;;;;;;;;;;4969148;28;20391;-64
2022/08/13 07:08:57;;;;;;;4.18;2.90;;;;;;;;;;4970429;28;20440;-64
2022/08/13 07:11:25;;;;;;;3.72;2.88;;;;;;;;;;4970523;28;20123;-64
2022/08/13 07:13:51;;;;;;;3.47;2.83;;;;;;;;;;4969018;28;20436;-64
2022/08/13 07:16:18;;;;;;;4.63;2.97;;;;;;;;;;4968970;28;20350;-64
2022/08/13 07:18:46;;;;;;;3.88;2.65;;;;;;;;;;4969443;28;20472;-64
2022/08/13 07:21:13;;;;;;;4.80;3.22;;;;;;;;;;4968767;28;20390;-64
2022/08/13 07:23:40;;;;;;;4.68;3.17;;;;;;;;;;4970873;28;20396;-64
2022/08/13 07:26:06;;;;;;;3.90;3.03;;;;;;;;;;4968778;28;20398;-65
2022/08/13 07:28:33;;;;;;;3.80;2.83;;;;;;;;;;4968994;28;20069;-64
2022/08/13 07:30:59;;;;;;;3.33;2.15;;;;;;;;;;4968166;28;20440;-65
2022/08/13 07:33:25;;;;;;;4.00;3.20;;;;;;;;;;4968749;28;20375;-64
2022/08/13 07:35:50;;;;;;;6.63;2.97;;;;;;;;;;4968705;28;20387;-64
2022/08/13 07:38:16;;;;;;;2.97;2.67;;;;;;;;;;4968789;28;20540;-64
2022/08/13 07:40:44;;;;;;;3.60;2.50;;;;;;;;;;4969944;28;20453;-64
2022/08/13 07:43:11;;;;;;;3.70;2.75;;;;;;;;;;4968541;28;20456;-64
2022/08/13 07:45:37;;;;;;;3.60;2.88;;;;;;;;;;4968629;28;20533;-65
2022/08/13 07:48:04;;;;;;;3.50;2.70;;;;;;;;;;4968587;28;20507;-64
2022/08/13 07:50:30;;;;;;;2.90;2.28;;;;;;;;;;4967074;28;20433;-65
2022/08/13 07:52:58;;;;;;;3.78;2.70;;;;;;;;;;4968431;28;20419;-64
2022/08/13 07:55:25;;;;;;;3.72;2.80;;;;;;;;;;4967154;28;20037;-64
2022/08/13 07:57:51;;;;;;;3.83;2.80;;;;;;;;;;4968182;28;20415;-65
2022/08/13 08:00:26;;;;;;;3.33;2.53;;;;;;;;;;4968527;28;20475;-65
2022/08/13 08:02:57;;;;;;;4.10;2.85;;;;;;;;;;4968585;28;20317;-64
2022/08/13 08:05:24;;;;;;;4.18;2.83;;;;;;;;;;4968538;28;20461;-65
2022/08/13 08:07:51;;;;;;;3.15;2.35;;;;;;;;;;4966927;28;20375;-65
2022/08/13 08:10:18;;;;;;;4.00;2.40;;;;;;;;;;4968087;28;20367;-65
2022/08/13 08:12:44;;;;;;;3.35;2.60;;;;;;;;;;4967955;28;20341;-65
2022/08/13 08:15:11;;;;;;;4.15;2.60;;;;;;;;;;4967995;28;20375;-65
2022/08/13 08:17:37;;;;;;;3.25;2.40;;;;;;;;;;4968025;28;20322;-64
2022/08/13 08:20:04;;;;;;;3.83;2.60;;;;;;;;;;4968053;28;20428;-64
2022/08/13 08:22:30;;;;;;;4.00;2.72;;;;;;;;;;4968199;28;20432;-65
2022/08/13 08:24:56;;;;;;;3.45;2.42;;;;;;;;;;4966744;28;20330;-64
2022/08/13 08:27:23;;;;;;;3.60;2.45;;;;;;;;;;4969310;28;20340;-65
2022/08/13 08:29:49;;;;;;;3.55;2.60;;;;;;;;;;4967352;28;20515;-64
2022/08/13 08:32:15;;;;;;;3.90;2.50;;;;;;;;;;4951168;28;20068;-65
2022/08/13 08:34:45;;;;;;;3.08;2.50;;;;;;;;;;4967853;28;20033;-65
2022/08/13 08:42:35;;;;;;;2.95;2.33;;;;;;;;;;4967729;28;20440;-65
2022/08/13 08:42:49;;;;;;;3.65;2.50;;;;;;;;;;4968897;28;20412;-65
2022/08/13 08:45:18;;;;;;;3.80;2.47;;;;;;;;;;4968410;28;20463;-64
2022/08/13 08:47:44;;;;;;;3.35;2.50;;;;;;;;;;4966599;28;20034;-65
2022/08/13 08:50:10;;;;;;;3.45;2.55;;;;;;;;;;4969894;28;20417;-65
2022/08/13 08:55:21;;;;;;;3.47;2.38;;;;;;;;;;4967751;28;20475;-65
2022/08/13 08:57:48;;;;;;;2.60;1.90;;;;;;;;;;4967651;28;20383;-65
2022/08/13 09:00:15;;;;;;;4.68;2.70;;;;;;;;;;4967560;28;20305;-65
2022/08/13 09:02:40;;;;;;;4.65;2.70;;;;;;;;;;4967641;28;20444;-67
2022/08/13 09:05:20;;;;;;;4.15;2.50;;;;;;;;;;4967611;28;20433;-65
2022/08/13 09:07:49;;;;;;;3.13;2.70;;;;;;;;;;4967404;28;20433;-65
2022/08/13 09:10:16;;;;;;;3.42;2.55;;;;;;;;;;4968434;28;20449;-65
2022/08/13 09:12:44;;;;;;;3.35;2.47;;;;;;;;;;4968591;28;20324;-65
2022/08/13 09:15:11;;;;;;;4.25;2.42;;;;;;;;;;4967963;28;20474;-65
2022/08/13 09:17:38;;;;;;;4.28;2.70;;;;;;;;;;4967432;28;20448;-65
2022/08/13 09:20:05;;;;;;;3.95;2.60;;;;;;;;;;4967438;28;20473;-65
2022/08/13 09:22:30;;;;;;;3.55;2.63;;;;;;;;;;4967723;28;20346;-65
2022/08/13 09:24:57;;;;;;;6.35;2.90;;;;;;;;;;4967643;28;20387;-65
2022/08/13 09:27:22;;;;;;;3.35;2.70;;;;;;;;;;4969925;28;20339;-65
2022/08/13 09:29:50;;;;;;;2.83;2.40;;;;;;;;;;4970531;28;20381;-65
2022/08/13 09:32:16;;;;;;;4.55;2.95;;;;;;;;;;4972952;28;20372;-65
2022/08/13 09:34:44;;;;;;;6.18;3.15;;;;;;;;;;4971915;28;20369;-65
2022/08/13 09:37:10;;;;;;;3.50;2.60;;;;;;;;;;4970989;28;20444;-65
2022/08/13 09:39:43;;;;;;;4.95;2.80;;;;;;;;;;4970911;28;20353;-65
2022/08/13 09:42:23;;;;;;;4.70;2.65;;;;;;;;;;4970693;28;20419;-65
2022/08/13 09:44:51;;;;;;;3.72;2.65;;;;;;;;;;4969157;28;20460;-65
2022/08/13 09:47:17;;;;;;;3.60;2.60;;;;;;;;;;4971886;28;20048;-65
2022/08/13 09:49:43;;;;;;;5.68;3.03;;;;;;;;;;4972697;28;20428;-66
2022/08/13 09:52:08;;;;;;;4.20;3.00;;;;;;;;;;4971039;28;20340;-65
2022/08/13 09:54:34;;;;;;;4.47;2.90;;;;;;;;;;4970920;28;20385;-65
2022/08/13 09:57:00;;;;;;;3.78;2.65;;;;;;;;;;4970672;28;20386;-65
2022/08/13 09:59:25;;;;;;;3.50;2.38;;;;;;;;;;4970348;28;20170;-65
2022/08/13 10:01:52;;;;;;;4.13;3.20;;;;;;;;;;4970343;28;20340;-64
2022/08/13 10:04:18;;;;;;;4.03;2.80;;;;;;;;;;4972498;28;20416;-65
2022/08/13 10:06:47;;;;;;;3.25;2.38;;;;;;;;;;4970408;28;20460;-65
2022/08/13 10:09:13;;;;;;;3.60;2.58;;;;;;;;;;4970982;28;20357;-65
2022/08/13 10:11:38;;;;;;;3.65;2.55;;;;;;;;;;4970381;28;20407;-65
2022/08/13 10:14:04;;;;;;;3.33;2.65;;;;;;;;;;4970169;28;20447;-64
2022/08/13 10:16:29;;;;;;;3.97;2.90;;;;;;;;;;4971286;28;20333;-65
2022/08/13 10:18:55;;;;;;;6.93;2.90;;;;;;;;;;4970574;28;20444;-65
2022/08/13 10:21:21;;;;;;;3.10;2.28;;;;;;;;;;4970426;28;20336;-65
2022/08/13 10:23:46;;;;;;;4.68;2.92;;;;;;;;;;4970074;28;20344;-65
2022/08/13 10:26:11;;;;;;;3.70;2.47;;;;;;;;;;4968359;28;20440;-65
2022/08/13 10:28:37;;;;;;;6.25;2.97;;;;;;;;;;4970201;28;20466;-65
2022/08/13 10:31:08;;;;;;;4.25;2.53;;;;;;;;;;4971225;28;20475;-65
2022/08/13 10:33:37;;;;;;;8.43;2.92;;;;;;;;;;4969811;28;20362;-65
2022/08/13 10:36:04;;;;;;;5.78;3.40;;;;;;;;;;4971089;28;20372;-65
2022/08/13 10:38:29;;;;;;;4.88;2.80;;;;;;;;;;4971672;28;20424;-65
2022/08/13 10:40:56;;;;;;;4.07;2.45;;;;;;;;;;4969708;28;20448;-65
2022/08/13 10:43:22;;;;;;;4.90;3.03;;;;;;;;;;4969574;28;20456;-65
2022/08/13 10:45:50;;;;;;;4.57;3.20;;;;;;;;;;4970713;28;20537;-65
2022/08/13 10:48:16;;;;;;;5.32;3.13;;;;;;;;;;4969626;28;20321;-65
2022/08/13 10:50:41;;;;;;;4.30;3.05;;;;;;;;;;4969451;28;20029;-65
2022/08/13 10:53:07;;;;;;;5.10;3.35;;;;;;;;;;4970786;28;20467;-65
2022/08/13 10:55:35;;;;;;;4.18;2.85;;;;;;;;;;4969364;28;20387;-65
2022/08/13 10:58:03;;;;;;;4.25;3.13;;;;;;;;;;4969294;28;20417;-65
2022/08/13 11:00:29;;;;;;;5.30;2.80;;;;;;;;;;4970053;28;20333;-65
2022/08/13 11:02:55;;;;;;;4.00;2.80;;;;;;;;;;4970187;28;20351;-65
2022/08/13 11:05:22;;;;;;;4.15;2.83;;;;;;;;;;4969220;28;20436;-65
2022/08/13 11:07:49;;;;;;;6.25;3.33;;;;;;;;;;4969390;28;20329;-65
2022/08/13 11:10:14;;;;;;;4.43;3.00;;;;;;;;;;4969020;28;20344;-65
2022/08/13 11:12:50;;;;;;;4.38;2.75;;;;;;;;;;4970876;28;20363;-65
2022/08/13 11:15:20;;;;;;;4.82;3.28;;;;;;;;;;4969068;28;20348;-65
2022/08/13 11:17:49;;;;;;;4.28;2.88;;;;;;;;;;4968998;28;20321;-65
2022/08/13 11:20:19;;;;;;;3.88;3.03;;;;;;;;;;4970330;28;20314;-65
2022/08/13 11:22:45;;;;;;;4.47;3.17;;;;;;;;;;4969294;28;20517;-64
2022/08/13 11:25:11;;;;;;;4.78;3.10;;;;;;;;;;4969736;28;20486;-65
2022/08/13 11:27:36;;;;;;;4.85;3.25;;;;;;;;;;4970057;28;20432;-65
2022/08/13 11:30:02;;;;;;;5.20;3.13;;;;;;;;;;4968571;28;20412;-65
2022/08/13 11:32:27;;;;;;;4.75;3.08;;;;;;;;;;4968668;28;20053;-65
2022/08/13 11:34:55;;;;;;;4.53;3.27;;;;;;;;;;4968513;28;20475;-65
2022/08/13 11:37:20;;;;;;;5.68;2.75;;;;;;;;;;4969213;28;20382;-65
2022/08/13 11:39:46;;;;;;;3.92;2.88;;;;;;;;;;4971046;28;20476;-65
2022/08/13 11:42:11;;;;;;;5.85;3.50;;;;;;;;;;4969170;28;20454;-65
2022/08/13 11:44:36;;;;;;;4.30;2.88;;;;;;;;;;4968825;28;20367;-65
2022/08/13 11:47:02;;;;;;;4.60;3.20;;;;;;;;;;4969216;28;20356;-65
2022/08/13 11:49:27;;;;;;;4.03;3.25;;;;;;;;;;4968042;28;20317;-65
2022/08/13 11:51:52;;;;;;;4.72;3.03;;;;;;;;;;4968518;28;20463;-65
2022/08/13 11:54:22;;;;;;;4.07;3.33;;;;;;;;;;4969188;28;20029;-65
2022/08/13 11:56:47;;;;;;;6.68;3.65;;;;;;;;;;4968709;28;20340;-65
2022/08/13 11:59:13;;;;;;;5.47;3.60;;;;;;;;;;4968557;28;20344;-65
2022/08/13 12:01:38;;;;;;;4.25;3.58;;;;;;;;;;4968383;28;20344;-65
2022/08/13 12:04:03;;;;;;;4.15;3.13;;;;;;;;;;4968726;28;20239;-65
2022/08/13 12:06:29;;;;;;;5.82;3.40;;;;;;;;;;4968995;28;20510;-65
2022/08/13 12:08:54;;;;;;;6.90;3.05;;;;;;;;;;4969095;28;20384;-64
2022/08/13 12:11:20;;;;;;;3.88;3.15;;;;;;;;;;4968596;28;20479;-65
2022/08/13 12:13:45;;;;;;;4.47;3.45;;;;;;;;;;4968594;28;20076;-65
2022/08/13 12:16:11;;;;;;;6.13;3.05;;;;;;;;;;4968051;28;20431;-65
2022/08/13 12:18:36;;;;;;;4.53;3.45;;;;;;;;;;4968328;28;20586;-65
2022/08/13 12:21:01;;;;;;;4.57;3.10;;;;;;;;;;4968781;28;20478;-65
2022/08/13 12:23:27;;;;;;;6.38;3.70;;;;;;;;;;4968574;28;20048;-65
2022/08/13 12:25:52;;;;;;;4.63;2.97;;;;;;;;;;4969702;28;20091;-64
2022/08/13 12:28:25;;;;;;;4.38;2.95;;;;;;;;;;4968415;28;20520;-66
2022/08/13 12:30:57;;;;;;;3.65;2.90;;;;;;;;;;4967584;28;20439;-65
2022/08/13 12:33:22;;;;;;;5.00;3.15;;;;;;;;;;4968484;28;20352;-64
2022/08/13 12:35:49;;;;;;;4.50;3.20;;;;;;;;;;4968201;28;20349;-64
2022/08/13 12:38:15;;;;;;;4.53;3.38;;;;;;;;;;4968037;28;20440;-65
2022/08/13 12:40:43;;;;;;;4.57;3.33;;;;;;;;;;4967862;28;20451;-64
2022/08/13 12:43:09;;;;;;;6.35;3.22;;;;;;;;;;4968203;28;20079;-64
2022/08/13 12:45:35;;;;;;;4.25;3.22;;;;;;;;;;4970221;28;20033;-65
2022/08/13 12:48:10;;;;;;;4.95;3.08;;;;;;;;;;4968114;28;20383;-65
2022/08/13 12:50:37;;;;;;;4.40;3.05;;;;;;;;;;4967919;28;20384;-65
2022/08/13 12:53:03;;;;;;;4.70;3.10;;;;;;;;;;4968369;28;20018;-65
2022/08/13 12:55:29;;;;;;;4.55;3.17;;;;;;;;;;4966392;28;20486;-65
2022/08/13 12:57:55;;;;;;;7.30;3.40;;;;;;;;;;4967850;28;20029;-65
2022/08/13 13:00:20;;;;;;;4.22;3.22;;;;;;;;;;4967637;28;20033;-64
2022/08/13 13:02:46;;;;;;;6.50;3.35;;;;;;;;;;4971146;28;20444;-65
2022/08/13 13:05:12;;;;;;;5.05;3.50;;;;;;;;;;4971536;28;20030;-65
2022/08/13 13:07:37;;;;;;;4.32;3.03;;;;;;;;;;4971380;28;20459;-65
2022/08/13 13:10:03;;;;;;;5.95;3.15;;;;;;;;;;4971903;28;20361;-65
2022/08/13 13:12:28;;;;;;;6.90;3.22;;;;;;;;;;4971431;28;20052;-68
2022/08/13 13:14:54;;;;;;;3.90;3.20;;;;;;;;;;4973373;28;20432;-65
2022/08/13 13:17:19;;;;;;;5.75;3.08;;;;;;;;;;4971550;28;20459;-64
2022/08/13 13:19:45;;;;;;;4.82;2.83;;;;;;;;;;4973009;28;20087;-64
2022/08/13 13:22:10;;;;;;;4.40;3.30;;;;;;;;;;4971401;28;20025;-65
2022/08/13 13:24:37;;;;;;;4.40;3.38;;;;;;;;;;4971429;28;20352;-64
2022/08/13 13:27:04;;;;;;;4.85;3.17;;;;;;;;;;4971569;28;20053;-65
2022/08/13 13:29:36;;;;;;;4.78;3.70;;;;;;;;;;4971928;28;20671;-69
2022/08/13 13:32:03;;;;;;;6.15;3.67;;;;;;;;;;4970897;28;20029;-65
2022/08/13 13:34:29;;;;;;;4.05;3.20;;;;;;;;;;4971256;28;20435;-65
2022/08/13 13:36:55;;;;;;;9.82;4.30;;;;;;;;;;4971052;28;20458;-65
2022/08/13 13:39:21;;;;;;;5.78;3.80;;;;;;;;;;4970926;28;20386;-65
2022/08/13 13:41:46;;;;;;;4.57;3.45;;;;;;;;;;4972533;28;20436;-65
2022/08/13 13:44:11;;;;;;;3.85;3.40;;;;;;;;;;4970839;28;20411;-65
2022/08/13 13:46:37;;;;;;;4.63;3.22;;;;;;;;;;4971049;28;20423;-64
2022/08/13 13:49:02;;;;;;;6.55;3.70;;;;;;;;;;4970905;28;20436;-64
2022/08/13 13:51:27;;;;;;;5.82;3.88;;;;;;;;;;4970818;28;20480;-65
2022/08/13 13:53:53;;;;;;;4.22;3.10;;;;;;;;;;4971382;28;20134;-65
2022/08/13 13:56:19;;;;;;;3.72;3.00;;;;;;;;;;4970582;28;20337;-65
2022/08/13 13:58:44;;;;;;;5.10;3.10;;;;;;;;;;4970549;28;20340;-65
2022/08/13 14:01:09;;;;;;;5.50;3.60;;;;;;;;;;4970456;28;20421;-65
2022/08/13 14:03:35;;;;;;;6.03;4.30;;;;;;;;;;4970746;28;20379;-64
2022/08/13 14:06:02;;;;;;;5.13;3.72;;;;;;;;;;4971501;28;20364;-65
2022/08/13 14:08:28;;;;;;;4.90;3.70;;;;;;;;;;4972535;28;20463;-65
2022/08/13 14:10:59;;;;;;;4.28;3.28;;;;;;;;;;4970507;28;20482;-65
2022/08/13 14:13:24;;;;;;;4.40;3.35;;;;;;;;;;4971809;28;20017;-66
2022/08/13 14:15:50;;;;;;;7.78;4.47;;;;;;;;;;4971591;28;20025;-65
2022/08/13 14:18:17;;;;;;;4.38;3.42;;;;;;;;;;4970160;28;20352;-65
2022/08/13 14:20:45;;;;;;;7.55;3.47;;;;;;;;;;4970096;28;20343;-65
2022/08/13 14:23:12;;;;;;;4.45;3.50;;;;;;;;;;4970025;28;20060;-65
2022/08/13 14:25:39;;;;;;;5.75;3.58;;;;;;;;;;4970076;28;20344;-65
2022/08/13 14:28:05;;;;;;;5.82;3.80;;;;;;;;;;4970127;28;20510;-65
2022/08/13 14:30:33;;;;;;;4.97;3.30;;;;;;;;;;4969675;28;20344;-65
2022/08/13 14:32:59;;;;;;;5.22;3.22;;;;;;;;;;4970037;28;20152;-65
2022/08/13 14:35:24;;;;;;;5.40;3.47;;;;;;;;;;4968628;28;20444;-65
2022/08/13 14:37:50;;;;;;;8.05;4.03;;;;;;;;;;4969737;28;20443;-65
2022/08/13 14:40:21;;;;;;;4.40;3.75;;;;;;;;;;4969901;28;20464;-65
2022/08/13 14:42:48;;;;;;;4.00;3.22;;;;;;;;;;4970134;28;20503;-65
2022/08/13 14:48:05;;;;;;;4.93;3.40;;;;;;;;;;4970795;28;20467;-65
2022/08/13 14:50:32;;;;;;;4.03;3.30;;;;;;;;;;4970240;28;20452;-66
2022/08/13 14:52:59;;;;;;;5.20;3.70;;;;;;;;;;4971528;28;20037;-65
2022/08/13 14:55:27;;;;;;;4.60;3.67;;;;;;;;;;4967901;28;20412;-80
2022/08/13 14:57:53;;;;;;;4.35;3.65;;;;;;;;;;4970622;28;20406;-67
2022/08/13 15:00:19;;;;;;;4.40;3.72;;;;;;;;;;4971452;28;20037;-65
2022/08/13 15:02:44;;;;;;;5.45;3.67;;;;;;;;;;4969708;28;20429;-65
2022/08/13 15:05:13;;;;;;;4.97;4.00;;;;;;;;;;4969738;28;20440;-65